sensor_id;sensor_type;location;lat;lon;timestamp;P1;durP1;ratioP1;P2;durP2;ratioP2
14722;SDS011;7452;55.594;12.986;2023-03-01T00:01:17;19.27;;;15.13;;
14722;SDS011;7452;55.594;12.986;2023-03-01T00:03:46;20.27;;;15.73;;
14722;SDS011;7452;55.594;12.986;2023-03-01T00:06:14;21.20;;;15.37;;
14722;SDS011;7452;55.594;12.986;2023-03-01T00:08:42;19.80;;;15.10;;
14722;SDS011;7452;55.594;12.986;2023-03-01T00:11:10;20.67;;;14.97;;
14722;SDS011;7452;55.594;12.986;2023-03-01T00:13:40;19.03;;;14.60;;
14722;SDS011;7452;55.594;12.986;2023-03-01T00:16:08;21.77;;;15.83;;
14722;SDS011;7452;55.594;12.986;2023-03-01T00:18:39;22.10;;;15.57;;
14722;SDS011;7452;55.594;12.986;2023-03-01T00:21:07;19.47;;;14.73;;
14722;SDS011;7452;55.594;12.986;2023-03-01T00:23:34;17.83;;;14.57;;
14722;SDS011;7452;55.594;12.986;2023-03-01T00:26:05;20.00;;;15.50;;
14722;SDS011;7452;55.594;12.986;2023-03-01T00:28:33;21.90;;;15.50;;
14722;SDS011;7452;55.594;12.986;2023-03-01T00:31:02;24.93;;;15.80;;
14722;SDS011;7452;55.594;12.986;2023-03-01T00:33:32;23.23;;;15.80;;
14722;SDS011;7452;55.594;12.986;2023-03-01T00:36:06;20.53;;;14.73;;
14722;SDS011;7452;55.594;12.986;2023-03-01T00:38:34;21.20;;;15.80;;
14722;SDS011;7452;55.594;12.986;2023-03-01T00:41:04;19.50;;;14.97;;
14722;SDS011;7452;55.594;12.986;2023-03-01T00:43:33;23.87;;;15.33;;
14722;SDS011;7452;55.594;12.986;2023-03-01T00:46:01;20.50;;;15.73;;
14722;SDS011;7452;55.594;12.986;2023-03-01T00:48:29;20.57;;;15.50;;
14722;SDS011;7452;55.594;12.986;2023-03-01T00:50:57;20.40;;;15.43;;
14722;SDS011;7452;55.594;12.986;2023-03-01T00:53:32;22.90;;;15.33;;
14722;SDS011;7452;55.594;12.986;2023-03-01T00:56:00;18.80;;;14.47;;
14722;SDS011;7452;55.594;12.986;2023-03-01T00:58:29;22.43;;;15.50;;
14722;SDS011;7452;55.594;12.986;2023-03-01T01:00:56;20.27;;;14.73;;
14722;SDS011;7452;55.594;12.986;2023-03-01T01:03:24;18.23;;;14.53;;
14722;SDS011;7452;55.594;12.986;2023-03-01T01:05:52;19.33;;;14.93;;
14722;SDS011;7452;55.594;12.986;2023-03-01T01:08:22;19.47;;;15.00;;
14722;SDS011;7452;55.594;12.986;2023-03-01T01:10:57;18.90;;;14.63;;
14722;SDS011;7452;55.594;12.986;2023-03-01T01:13:26;18.90;;;14.27;;
14722;SDS011;7452;55.594;12.986;2023-03-01T01:15:54;19.97;;;14.00;;
14722;SDS011;7452;55.594;12.986;2023-03-01T01:18:26;18.13;;;14.13;;
14722;SDS011;7452;55.594;12.986;2023-03-01T01:20:56;15.53;;;13.30;;
14722;SDS011;7452;55.594;12.986;2023-03-01T01:23:26;17.43;;;13.37;;
14722;SDS011;7452;55.594;12.986;2023-03-01T01:25:53;17.03;;;14.07;;
14722;SDS011;7452;55.594;12.986;2023-03-01T01:28:23;20.43;;;14.07;;
14722;SDS011;7452;55.594;12.986;2023-03-01T01:30:50;18.43;;;13.47;;
14722;SDS011;7452;55.594;12.986;2023-03-01T01:33:18;18.13;;;13.77;;
14722;SDS011;7452;55.594;12.986;2023-03-01T01:35:46;20.77;;;14.47;;
14722;SDS011;7452;55.594;12.986;2023-03-01T01:38:14;18.07;;;14.00;;
14722;SDS011;7452;55.594;12.986;2023-03-01T01:40:42;18.00;;;14.33;;
14722;SDS011;7452;55.594;12.986;2023-03-01T01:43:15;21.13;;;15.73;;
14722;SDS011;7452;55.594;12.986;2023-03-01T01:45:48;19.80;;;15.30;;
14722;SDS011;7452;55.594;12.986;2023-03-01T01:48:17;22.77;;;14.90;;
14722;SDS011;7452;55.594;12.986;2023-03-01T01:50:49;22.23;;;16.07;;
14722;SDS011;7452;55.594;12.986;2023-03-01T01:53:23;21.00;;;15.67;;
14722;SDS011;7452;55.594;12.986;2023-03-01T01:55:53;21.37;;;16.07;;
14722;SDS011;7452;55.594;12.986;2023-03-01T01:58:27;22.00;;;16.30;;
14722;SDS011;7452;55.594;12.986;2023-03-01T02:00:58;25.37;;;17.03;;
14722;SDS011;7452;55.594;12.986;2023-03-01T02:03:27;23.03;;;16.70;;
14722;SDS011;7452;55.594;12.986;2023-03-01T02:06:03;22.57;;;17.00;;
14722;SDS011;7452;55.594;12.986;2023-03-01T02:08:35;22.20;;;16.33;;
14722;SDS011;7452;55.594;12.986;2023-03-01T02:11:05;23.17;;;16.30;;
14722;SDS011;7452;55.594;12.986;2023-03-01T02:13:34;20.93;;;16.10;;
14722;SDS011;7452;55.594;12.986;2023-03-01T02:16:04;23.27;;;16.97;;
14722;SDS011;7452;55.594;12.986;2023-03-01T02:18:34;25.60;;;17.20;;
14722;SDS011;7452;55.594;12.986;2023-03-01T02:21:05;22.23;;;16.90;;
14722;SDS011;7452;55.594;12.986;2023-03-01T02:23:42;21.87;;;16.20;;
14722;SDS011;7452;55.594;12.986;2023-03-01T02:26:15;23.47;;;17.13;;
14722;SDS011;7452;55.594;12.986;2023-03-01T02:28:52;24.50;;;17.27;;
14722;SDS011;7452;55.594;12.986;2023-03-01T02:31:20;23.20;;;16.67;;
14722;SDS011;7452;55.594;12.986;2023-03-01T02:34:05;24.97;;;18.00;;
14722;SDS011;7452;55.594;12.986;2023-03-01T02:36:35;23.03;;;17.17;;
14722;SDS011;7452;55.594;12.986;2023-03-01T02:39:07;27.73;;;18.20;;
14722;SDS011;7452;55.594;12.986;2023-03-01T02:41:39;26.40;;;18.30;;
14722;SDS011;7452;55.594;12.986;2023-03-01T02:44:12;27.07;;;19.20;;
14722;SDS011;7452;55.594;12.986;2023-03-01T02:46:42;27.43;;;18.77;;
14722;SDS011;7452;55.594;12.986;2023-03-01T02:49:22;27.07;;;19.17;;
14722;SDS011;7452;55.594;12.986;2023-03-01T02:55:05;28.43;;;19.83;;
14722;SDS011;7452;55.594;12.986;2023-03-01T02:57:36;27.03;;;18.40;;
14722;SDS011;7452;55.594;12.986;2023-03-01T03:00:12;27.33;;;19.93;;
14722;SDS011;7452;55.594;12.986;2023-03-01T03:02:44;25.47;;;18.80;;
14722;SDS011;7452;55.594;12.986;2023-03-01T03:05:13;27.37;;;19.53;;
14722;SDS011;7452;55.594;12.986;2023-03-01T03:07:43;27.77;;;19.87;;
14722;SDS011;7452;55.594;12.986;2023-03-01T03:10:13;28.93;;;20.40;;
14722;SDS011;7452;55.594;12.986;2023-03-01T03:12:48;31.00;;;22.13;;
14722;SDS011;7452;55.594;12.986;2023-03-01T03:15:21;28.93;;;21.40;;
14722;SDS011;7452;55.594;12.986;2023-03-01T03:17:50;29.33;;;20.77;;
14722;SDS011;7452;55.594;12.986;2023-03-01T03:20:24;29.73;;;21.97;;
14722;SDS011;7452;55.594;12.986;2023-03-01T03:22:53;31.73;;;22.40;;
14722;SDS011;7452;55.594;12.986;2023-03-01T03:25:24;29.83;;;21.83;;
14722;SDS011;7452;55.594;12.986;2023-03-01T03:27:53;32.43;;;22.27;;
14722;SDS011;7452;55.594;12.986;2023-03-01T03:30:25;28.57;;;21.67;;
14722;SDS011;7452;55.594;12.986;2023-03-01T03:32:55;31.47;;;23.27;;
14722;SDS011;7452;55.594;12.986;2023-03-01T03:35:23;29.73;;;22.20;;
14722;SDS011;7452;55.594;12.986;2023-03-01T03:37:55;29.70;;;22.90;;
14722;SDS011;7452;55.594;12.986;2023-03-01T03:40:35;30.23;;;22.30;;
14722;SDS011;7452;55.594;12.986;2023-03-01T03:43:06;31.87;;;22.90;;
14722;SDS011;7452;55.594;12.986;2023-03-01T03:45:38;31.27;;;23.80;;
14722;SDS011;7452;55.594;12.986;2023-03-01T03:48:07;33.57;;;25.30;;
14722;SDS011;7452;55.594;12.986;2023-03-01T03:50:36;34.13;;;25.40;;
14722;SDS011;7452;55.594;12.986;2023-03-01T03:53:05;35.33;;;25.90;;
14722;SDS011;7452;55.594;12.986;2023-03-01T03:55:34;33.10;;;24.17;;
14722;SDS011;7452;55.594;12.986;2023-03-01T03:58:05;35.97;;;26.63;;
14722;SDS011;7452;55.594;12.986;2023-03-01T04:00:36;37.40;;;26.73;;
14722;SDS011;7452;55.594;12.986;2023-03-01T04:03:07;38.53;;;27.00;;
14722;SDS011;7452;55.594;12.986;2023-03-01T04:05:35;36.60;;;26.73;;
14722;SDS011;7452;55.594;12.986;2023-03-01T04:08:04;35.07;;;26.17;;
14722;SDS011;7452;55.594;12.986;2023-03-01T04:10:34;36.17;;;24.60;;
14722;SDS011;7452;55.594;12.986;2023-03-01T04:13:03;37.07;;;25.60;;
14722;SDS011;7452;55.594;12.986;2023-03-01T04:15:32;35.50;;;26.10;;
14722;SDS011;7452;55.594;12.986;2023-03-01T04:18:01;34.27;;;24.97;;
14722;SDS011;7452;55.594;12.986;2023-03-01T04:20:32;34.67;;;25.87;;
14722;SDS011;7452;55.594;12.986;2023-03-01T04:23:02;36.23;;;26.73;;
14722;SDS011;7452;55.594;12.986;2023-03-01T04:25:36;34.03;;;26.17;;
14722;SDS011;7452;55.594;12.986;2023-03-01T04:28:04;37.60;;;26.07;;
14722;SDS011;7452;55.594;12.986;2023-03-01T04:30:32;36.50;;;27.50;;
14722;SDS011;7452;55.594;12.986;2023-03-01T04:33:04;36.73;;;26.63;;
14722;SDS011;7452;55.594;12.986;2023-03-01T04:35:32;32.17;;;24.73;;
14722;SDS011;7452;55.594;12.986;2023-03-01T04:38:00;37.67;;;26.40;;
14722;SDS011;7452;55.594;12.986;2023-03-01T04:40:28;35.33;;;26.03;;
14722;SDS011;7452;55.594;12.986;2023-03-01T04:42:58;34.63;;;25.00;;
14722;SDS011;7452;55.594;12.986;2023-03-01T04:45:25;39.67;;;26.53;;
14722;SDS011;7452;55.594;12.986;2023-03-01T04:47:53;38.27;;;26.33;;
14722;SDS011;7452;55.594;12.986;2023-03-01T04:50:30;37.27;;;26.43;;
14722;SDS011;7452;55.594;12.986;2023-03-01T04:52:58;41.80;;;27.17;;
14722;SDS011;7452;55.594;12.986;2023-03-01T04:55:26;39.23;;;28.50;;
14722;SDS011;7452;55.594;12.986;2023-03-01T04:57:57;38.77;;;26.60;;
14722;SDS011;7452;55.594;12.986;2023-03-01T05:00:24;37.37;;;27.37;;
14722;SDS011;7452;55.594;12.986;2023-03-01T05:02:52;42.03;;;28.37;;
14722;SDS011;7452;55.594;12.986;2023-03-01T05:05:21;43.63;;;29.20;;
14722;SDS011;7452;55.594;12.986;2023-03-01T05:08:07;46.33;;;32.00;;
14722;SDS011;7452;55.594;12.986;2023-03-01T05:10:43;49.50;;;31.90;;
14722;SDS011;7452;55.594;12.986;2023-03-01T05:13:12;46.73;;;31.63;;
14722;SDS011;7452;55.594;12.986;2023-03-01T05:15:46;46.20;;;30.60;;
14722;SDS011;7452;55.594;12.986;2023-03-01T05:18:14;43.83;;;30.60;;
14722;SDS011;7452;55.594;12.986;2023-03-01T05:20:41;47.90;;;32.13;;
14722;SDS011;7452;55.594;12.986;2023-03-01T05:23:11;46.97;;;30.93;;
14722;SDS011;7452;55.594;12.986;2023-03-01T05:25:38;47.20;;;31.30;;
14722;SDS011;7452;55.594;12.986;2023-03-01T05:28:06;45.93;;;32.33;;
14722;SDS011;7452;55.594;12.986;2023-03-01T05:30:38;46.27;;;33.33;;
14722;SDS011;7452;55.594;12.986;2023-03-01T05:33:06;44.77;;;30.80;;
14722;SDS011;7452;55.594;12.986;2023-03-01T05:35:38;43.97;;;31.53;;
14722;SDS011;7452;55.594;12.986;2023-03-01T05:38:07;42.77;;;30.10;;
14722;SDS011;7452;55.594;12.986;2023-03-01T05:40:36;48.03;;;31.57;;
14722;SDS011;7452;55.594;12.986;2023-03-01T05:43:03;47.57;;;32.70;;
14722;SDS011;7452;55.594;12.986;2023-03-01T05:45:32;47.37;;;33.27;;
14722;SDS011;7452;55.594;12.986;2023-03-01T05:48:02;49.10;;;32.47;;
14722;SDS011;7452;55.594;12.986;2023-03-01T05:50:33;52.10;;;33.90;;
14722;SDS011;7452;55.594;12.986;2023-03-01T05:53:07;51.17;;;33.00;;
14722;SDS011;7452;55.594;12.986;2023-03-01T05:55:38;49.67;;;33.07;;
14722;SDS011;7452;55.594;12.986;2023-03-01T05:58:09;48.27;;;31.90;;
14722;SDS011;7452;55.594;12.986;2023-03-01T06:00:39;45.80;;;32.10;;
14722;SDS011;7452;55.594;12.986;2023-03-01T06:03:09;49.03;;;32.43;;
14722;SDS011;7452;55.594;12.986;2023-03-01T06:05:37;46.97;;;31.40;;
14722;SDS011;7452;55.594;12.986;2023-03-01T06:08:05;48.23;;;30.40;;
14722;SDS011;7452;55.594;12.986;2023-03-01T06:10:33;44.97;;;30.77;;
14722;SDS011;7452;55.594;12.986;2023-03-01T06:13:02;46.80;;;31.73;;
14722;SDS011;7452;55.594;12.986;2023-03-01T06:15:31;42.17;;;29.67;;
14722;SDS011;7452;55.594;12.986;2023-03-01T06:18:00;48.30;;;31.03;;
14722;SDS011;7452;55.594;12.986;2023-03-01T06:20:29;48.03;;;30.90;;
14722;SDS011;7452;55.594;12.986;2023-03-01T06:22:57;45.97;;;30.37;;
14722;SDS011;7452;55.594;12.986;2023-03-01T06:25:26;43.97;;;29.47;;
14722;SDS011;7452;55.594;12.986;2023-03-01T06:27:56;47.60;;;29.93;;
14722;SDS011;7452;55.594;12.986;2023-03-01T06:30:26;45.87;;;30.83;;
14722;SDS011;7452;55.594;12.986;2023-03-01T06:33:01;41.60;;;28.87;;
14722;SDS011;7452;55.594;12.986;2023-03-01T06:35:29;43.13;;;28.70;;
14722;SDS011;7452;55.594;12.986;2023-03-01T06:37:59;44.00;;;27.10;;
14722;SDS011;7452;55.594;12.986;2023-03-01T06:40:28;42.63;;;24.47;;
14722;SDS011;7452;55.594;12.986;2023-03-01T06:42:56;45.47;;;24.30;;
14722;SDS011;7452;55.594;12.986;2023-03-01T06:45:25;47.30;;;23.83;;
14722;SDS011;7452;55.594;12.986;2023-03-01T06:48:01;40.27;;;22.07;;
14722;SDS011;7452;55.594;12.986;2023-03-01T06:50:31;45.13;;;21.07;;
14722;SDS011;7452;55.594;12.986;2023-03-01T06:53:02;58.87;;;19.83;;
14722;SDS011;7452;55.594;12.986;2023-03-01T06:55:30;66.00;;;19.90;;
14722;SDS011;7452;55.594;12.986;2023-03-01T06:57:58;40.03;;;18.07;;
14722;SDS011;7452;55.594;12.986;2023-03-01T07:00:27;47.77;;;18.30;;
14722;SDS011;7452;55.594;12.986;2023-03-01T07:02:57;49.33;;;18.33;;
14722;SDS011;7452;55.594;12.986;2023-03-01T07:05:28;50.70;;;17.97;;
14722;SDS011;7452;55.594;12.986;2023-03-01T07:07:55;66.97;;;18.67;;
14722;SDS011;7452;55.594;12.986;2023-03-01T07:10:24;45.03;;;16.37;;
14722;SDS011;7452;55.594;12.986;2023-03-01T07:12:55;42.63;;;15.60;;
14722;SDS011;7452;55.594;12.986;2023-03-01T07:15:30;52.03;;;15.30;;
14722;SDS011;7452;55.594;12.986;2023-03-01T07:17:57;42.03;;;15.53;;
14722;SDS011;7452;55.594;12.986;2023-03-01T07:20:25;48.63;;;14.00;;
14722;SDS011;7452;55.594;12.986;2023-03-01T07:22:54;34.93;;;12.30;;
14722;SDS011;7452;55.594;12.986;2023-03-01T07:25:25;31.37;;;12.13;;
14722;SDS011;7452;55.594;12.986;2023-03-01T07:27:53;23.43;;;11.90;;
14722;SDS011;7452;55.594;12.986;2023-03-01T07:30:30;30.97;;;10.97;;
14722;SDS011;7452;55.594;12.986;2023-03-01T07:32:57;24.00;;;11.43;;
14722;SDS011;7452;55.594;12.986;2023-03-01T07:35:25;19.30;;;10.77;;
14722;SDS011;7452;55.594;12.986;2023-03-01T07:37:53;21.17;;;10.13;;
14722;SDS011;7452;55.594;12.986;2023-03-01T07:40:21;23.57;;;11.53;;
14722;SDS011;7452;55.594;12.986;2023-03-01T07:42:59;26.70;;;11.13;;
14722;SDS011;7452;55.594;12.986;2023-03-01T07:45:38;23.93;;;10.73;;
14722;SDS011;7452;55.594;12.986;2023-03-01T07:48:13;20.07;;;10.27;;
14722;SDS011;7452;55.594;12.986;2023-03-01T07:50:59;14.77;;;9.60;;
14722;SDS011;7452;55.594;12.986;2023-03-01T07:53:29;14.30;;;9.03;;
14722;SDS011;7452;55.594;12.986;2023-03-01T07:56:02;18.23;;;10.97;;
14722;SDS011;7452;55.594;12.986;2023-03-01T07:58:35;16.83;;;10.27;;
14722;SDS011;7452;55.594;12.986;2023-03-01T08:01:05;15.73;;;9.90;;
14722;SDS011;7452;55.594;12.986;2023-03-01T08:03:49;18.07;;;10.07;;
14722;SDS011;7452;55.594;12.986;2023-03-01T08:06:17;16.30;;;9.33;;
14722;SDS011;7452;55.594;12.986;2023-03-01T08:08:51;15.37;;;9.03;;
14722;SDS011;7452;55.594;12.986;2023-03-01T08:11:20;14.93;;;9.00;;
14722;SDS011;7452;55.594;12.986;2023-03-01T08:13:48;14.13;;;8.63;;
14722;SDS011;7452;55.594;12.986;2023-03-01T08:16:26;12.43;;;7.87;;
14722;SDS011;7452;55.594;12.986;2023-03-01T08:18:54;14.40;;;7.67;;
14722;SDS011;7452;55.594;12.986;2023-03-01T08:21:26;13.67;;;8.57;;
14722;SDS011;7452;55.594;12.986;2023-03-01T08:24:00;13.50;;;8.97;;
14722;SDS011;7452;55.594;12.986;2023-03-01T08:26:28;14.17;;;9.10;;
14722;SDS011;7452;55.594;12.986;2023-03-01T08:29:05;10.93;;;7.47;;
14722;SDS011;7452;55.594;12.986;2023-03-01T08:31:38;11.37;;;7.37;;
14722;SDS011;7452;55.594;12.986;2023-03-01T08:34:18;10.73;;;7.07;;
14722;SDS011;7452;55.594;12.986;2023-03-01T08:36:46;9.00;;;6.80;;
14722;SDS011;7452;55.594;12.986;2023-03-01T08:39:13;10.07;;;6.73;;
14722;SDS011;7452;55.594;12.986;2023-03-01T08:41:43;9.63;;;7.07;;
14722;SDS011;7452;55.594;12.986;2023-03-01T08:44:12;10.23;;;7.23;;
14722;SDS011;7452;55.594;12.986;2023-03-01T08:46:43;12.17;;;8.27;;
14722;SDS011;7452;55.594;12.986;2023-03-01T08:49:12;11.63;;;8.30;;
14722;SDS011;7452;55.594;12.986;2023-03-01T08:51:41;14.57;;;8.80;;
14722;SDS011;7452;55.594;12.986;2023-03-01T08:54:10;11.00;;;7.67;;
14722;SDS011;7452;55.594;12.986;2023-03-01T08:56:42;14.27;;;8.77;;
14722;SDS011;7452;55.594;12.986;2023-03-01T08:59:13;12.33;;;8.43;;
14722;SDS011;7452;55.594;12.986;2023-03-01T09:01:48;12.83;;;7.90;;
14722;SDS011;7452;55.594;12.986;2023-03-01T09:04:19;12.23;;;7.30;;
14722;SDS011;7452;55.594;12.986;2023-03-01T09:06:47;9.57;;;6.87;;
14722;SDS011;7452;55.594;12.986;2023-03-01T09:09:15;9.30;;;6.63;;
14722;SDS011;7452;55.594;12.986;2023-03-01T09:11:45;9.30;;;7.00;;
14722;SDS011;7452;55.594;12.986;2023-03-01T09:14:15;11.27;;;7.93;;
14722;SDS011;7452;55.594;12.986;2023-03-01T09:16:43;12.13;;;8.17;;
14722;SDS011;7452;55.594;12.986;2023-03-01T09:19:12;12.53;;;7.07;;
14722;SDS011;7452;55.594;12.986;2023-03-01T09:21:40;8.97;;;6.47;;
14722;SDS011;7452;55.594;12.986;2023-03-01T09:24:18;11.30;;;6.80;;
14722;SDS011;7452;55.594;12.986;2023-03-01T09:26:46;10.67;;;7.20;;
14722;SDS011;7452;55.594;12.986;2023-03-01T09:29:14;12.27;;;7.40;;
14722;SDS011;7452;55.594;12.986;2023-03-01T09:31:42;9.97;;;6.77;;
14722;SDS011;7452;55.594;12.986;2023-03-01T09:34:14;10.07;;;6.97;;
14722;SDS011;7452;55.594;12.986;2023-03-01T09:36:48;8.50;;;6.57;;
14722;SDS011;7452;55.594;12.986;2023-03-01T09:39:15;7.73;;;5.87;;
14722;SDS011;7452;55.594;12.986;2023-03-01T09:41:45;7.37;;;5.93;;
14722;SDS011;7452;55.594;12.986;2023-03-01T09:44:21;10.30;;;6.53;;
14722;SDS011;7452;55.594;12.986;2023-03-01T09:46:56;8.97;;;6.50;;
14722;SDS011;7452;55.594;12.986;2023-03-01T09:49:27;9.27;;;6.33;;
14722;SDS011;7452;55.594;12.986;2023-03-01T09:52:07;9.63;;;6.10;;
14722;SDS011;7452;55.594;12.986;2023-03-01T09:54:48;9.33;;;6.30;;
14722;SDS011;7452;55.594;12.986;2023-03-01T09:57:26;9.10;;;6.20;;
14722;SDS011;7452;55.594;12.986;2023-03-01T10:00:09;8.37;;;6.13;;
14722;SDS011;7452;55.594;12.986;2023-03-01T10:02:47;7.40;;;5.73;;
14722;SDS011;7452;55.594;12.986;2023-03-01T10:05:29;9.07;;;6.23;;
14722;SDS011;7452;55.594;12.986;2023-03-01T10:08:06;8.73;;;6.00;;
14722;SDS011;7452;55.594;12.986;2023-03-01T10:11:04;9.33;;;6.10;;
14722;SDS011;7452;55.594;12.986;2023-03-01T10:13:52;9.77;;;6.13;;
14722;SDS011;7452;55.594;12.986;2023-03-01T10:16:26;8.87;;;5.60;;
14722;SDS011;7452;55.594;12.986;2023-03-01T10:19:00;7.03;;;5.00;;
14722;SDS011;7452;55.594;12.986;2023-03-01T10:21:39;7.50;;;5.50;;
14722;SDS011;7452;55.594;12.986;2023-03-01T10:24:14;7.90;;;4.70;;
14722;SDS011;7452;55.594;12.986;2023-03-01T10:26:48;6.17;;;4.27;;
14722;SDS011;7452;55.594;12.986;2023-03-01T10:29:22;7.10;;;4.43;;
14722;SDS011;7452;55.594;12.986;2023-03-01T10:31:54;4.67;;;4.03;;
14722;SDS011;7452;55.594;12.986;2023-03-01T10:34:27;7.73;;;4.53;;
14722;SDS011;7452;55.594;12.986;2023-03-01T10:36:58;4.53;;;4.10;;
14722;SDS011;7452;55.594;12.986;2023-03-01T10:39:35;5.37;;;3.60;;
14722;SDS011;7452;55.594;12.986;2023-03-01T10:42:22;3.70;;;3.23;;
14722;SDS011;7452;55.594;12.986;2023-03-01T10:44:53;2.80;;;2.53;;
14722;SDS011;7452;55.594;12.986;2023-03-01T10:47:24;4.17;;;2.53;;
14722;SDS011;7452;55.594;12.986;2023-03-01T10:49:59;2.97;;;2.30;;
14722;SDS011;7452;55.594;12.986;2023-03-01T10:52:34;2.40;;;2.20;;
14722;SDS011;7452;55.594;12.986;2023-03-01T10:55:04;2.60;;;2.40;;
14722;SDS011;7452;55.594;12.986;2023-03-01T10:58:05;4.20;;;3.10;;
14722;SDS011;7452;55.594;12.986;2023-03-01T11:00:48;4.93;;;3.90;;
14722;SDS011;7452;55.594;12.986;2023-03-01T11:03:30;5.30;;;3.90;;
14722;SDS011;7452;55.594;12.986;2023-03-01T11:06:01;5.33;;;4.10;;
14722;SDS011;7452;55.594;12.986;2023-03-01T11:08:34;4.50;;;4.10;;
14722;SDS011;7452;55.594;12.986;2023-03-01T11:11:10;5.27;;;4.00;;
14722;SDS011;7452;55.594;12.986;2023-03-01T11:13:49;4.30;;;3.90;;
14722;SDS011;7452;55.594;12.986;2023-03-01T11:16:22;4.50;;;4.10;;
14722;SDS011;7452;55.594;12.986;2023-03-01T11:18:56;6.10;;;4.87;;
14722;SDS011;7452;55.594;12.986;2023-03-01T11:21:44;5.30;;;4.80;;
14722;SDS011;7452;55.594;12.986;2023-03-01T11:24:24;4.83;;;4.30;;
14722;SDS011;7452;55.594;12.986;2023-03-01T11:26:59;4.80;;;4.40;;
14722;SDS011;7452;55.594;12.986;2023-03-01T11:29:35;4.70;;;4.20;;
14722;SDS011;7452;55.594;12.986;2023-03-01T11:32:08;4.77;;;4.30;;
14722;SDS011;7452;55.594;12.986;2023-03-01T11:34:42;5.33;;;4.50;;
14722;SDS011;7452;55.594;12.986;2023-03-01T11:37:16;6.13;;;4.23;;
14722;SDS011;7452;55.594;12.986;2023-03-01T11:40:05;5.03;;;4.37;;
14722;SDS011;7452;55.594;12.986;2023-03-01T11:42:48;6.33;;;4.43;;
14722;SDS011;7452;55.594;12.986;2023-03-01T11:45:24;4.67;;;4.27;;
14722;SDS011;7452;55.594;12.986;2023-03-01T11:48:07;4.50;;;4.10;;
14722;SDS011;7452;55.594;12.986;2023-03-01T11:50:54;4.20;;;3.80;;
14722;SDS011;7452;55.594;12.986;2023-03-01T11:53:30;4.23;;;3.80;;
14722;SDS011;7452;55.594;12.986;2023-03-01T11:56:12;3.80;;;3.50;;
14722;SDS011;7452;55.594;12.986;2023-03-01T11:58:55;3.70;;;3.40;;
14722;SDS011;7452;55.594;12.986;2023-03-01T12:01:45;4.20;;;3.80;;
14722;SDS011;7452;55.594;12.986;2023-03-01T12:04:51;5.03;;;3.67;;
14722;SDS011;7452;55.594;12.986;2023-03-01T12:07:41;4.30;;;3.33;;
14722;SDS011;7452;55.594;12.986;2023-03-01T12:10:22;4.30;;;3.47;;
14722;SDS011;7452;55.594;12.986;2023-03-01T12:15:57;3.40;;;2.90;;
14722;SDS011;7452;55.594;12.986;2023-03-01T12:18:49;3.47;;;2.90;;
14722;SDS011;7452;55.594;12.986;2023-03-01T12:21:38;3.67;;;2.90;;
14722;SDS011;7452;55.594;12.986;2023-03-01T12:27:23;3.25;;;2.67;;
14722;SDS011;7452;55.594;12.986;2023-03-01T12:30:09;3.88;;;2.35;;
14722;SDS011;7452;55.594;12.986;2023-03-01T12:32:52;2.67;;;1.90;;
14722;SDS011;7452;55.594;12.986;2023-03-01T12:38:37;3.40;;;1.60;;
14722;SDS011;7452;55.594;12.986;2023-03-01T12:41:15;1.70;;;1.60;;
14722;SDS011;7452;55.594;12.986;2023-03-01T12:44:09;2.55;;;1.70;;
14722;SDS011;7452;55.594;12.986;2023-03-01T12:46:56;1.63;;;1.50;;
14722;SDS011;7452;55.594;12.986;2023-03-01T12:49:34;1.60;;;1.40;;
14722;SDS011;7452;55.594;12.986;2023-03-01T12:52:09;2.15;;;1.35;;
14722;SDS011;7452;55.594;12.986;2023-03-01T12:54:45;1.77;;;1.52;;
14722;SDS011;7452;55.594;12.986;2023-03-01T12:57:15;1.38;;;1.10;;
14722;SDS011;7452;55.594;12.986;2023-03-01T12:59:50;2.60;;;1.40;;
14722;SDS011;7452;55.594;12.986;2023-03-01T13:02:35;1.20;;;1.10;;
14722;SDS011;7452;55.594;12.986;2023-03-01T13:05:16;1.48;;;1.38;;
14722;SDS011;7452;55.594;12.986;2023-03-01T13:07:55;3.85;;;1.60;;
14722;SDS011;7452;55.594;12.986;2023-03-01T13:10:32;2.88;;;1.48;;
14722;SDS011;7452;55.594;12.986;2023-03-01T13:13:12;2.20;;;1.30;;
14722;SDS011;7452;55.594;12.986;2023-03-01T13:15:54;2.30;;;1.50;;
14722;SDS011;7452;55.594;12.986;2023-03-01T13:18:30;1.55;;;1.10;;
14722;SDS011;7452;55.594;12.986;2023-03-01T13:21:05;1.45;;;1.20;;
14722;SDS011;7452;55.594;12.986;2023-03-01T13:23:38;2.20;;;1.20;;
14722;SDS011;7452;55.594;12.986;2023-03-01T13:28:53;1.40;;;1.00;;
14722;SDS011;7452;55.594;12.986;2023-03-01T13:37:20;1.00;;;0.90;;
14722;SDS011;7452;55.594;12.986;2023-03-01T13:39:55;2.35;;;0.88;;
14722;SDS011;7452;55.594;12.986;2023-03-01T13:42:37;2.00;;;1.10;;
14722;SDS011;7452;55.594;12.986;2023-03-01T13:45:17;2.05;;;0.70;;
14722;SDS011;7452;55.594;12.986;2023-03-01T13:48:01;1.50;;;1.00;;
14722;SDS011;7452;55.594;12.986;2023-03-01T13:50:43;1.95;;;0.95;;
14722;SDS011;7452;55.594;12.986;2023-03-01T13:53:17;2.40;;;1.23;;
14722;SDS011;7452;55.594;12.986;2023-03-01T13:55:46;1.67;;;0.90;;
14722;SDS011;7452;55.594;12.986;2023-03-01T13:58:16;1.52;;;0.80;;
14722;SDS011;7452;55.594;12.986;2023-03-01T14:00:54;1.70;;;0.82;;
14722;SDS011;7452;55.594;12.986;2023-03-01T14:03:22;2.13;;;1.00;;
14722;SDS011;7452;55.594;12.986;2023-03-01T14:08:35;1.95;;;0.70;;
14722;SDS011;7452;55.594;12.986;2023-03-01T14:11:13;1.67;;;0.90;;
14722;SDS011;7452;55.594;12.986;2023-03-01T14:14:04;1.63;;;0.85;;
14722;SDS011;7452;55.594;12.986;2023-03-01T14:16:57;1.45;;;0.80;;
14722;SDS011;7452;55.594;12.986;2023-03-01T14:19:33;1.33;;;0.90;;
14722;SDS011;7452;55.594;12.986;2023-03-01T14:22:10;1.05;;;0.80;;
14722;SDS011;7452;55.594;12.986;2023-03-01T14:24:44;1.45;;;0.80;;
14722;SDS011;7452;55.594;12.986;2023-03-01T14:27:15;0.88;;;0.80;;
14722;SDS011;7452;55.594;12.986;2023-03-01T14:29:53;1.67;;;0.70;;
14722;SDS011;7452;55.594;12.986;2023-03-01T14:32:23;2.78;;;0.80;;
14722;SDS011;7452;55.594;12.986;2023-03-01T14:34:53;2.80;;;1.02;;
14722;SDS011;7452;55.594;12.986;2023-03-01T14:37:24;1.33;;;0.82;;
14722;SDS011;7452;55.594;12.986;2023-03-01T14:39:53;0.90;;;0.80;;
14722;SDS011;7452;55.594;12.986;2023-03-01T14:42:24;2.23;;;0.70;;
14722;SDS011;7452;55.594;12.986;2023-03-01T14:44:54;1.83;;;1.07;;
14722;SDS011;7452;55.594;12.986;2023-03-01T14:47:25;3.07;;;0.93;;
14722;SDS011;7452;55.594;12.986;2023-03-01T14:49:56;1.73;;;0.80;;
14722;SDS011;7452;55.594;12.986;2023-03-01T14:52:30;1.53;;;0.70;;
14722;SDS011;7452;55.594;12.986;2023-03-01T14:55:02;1.07;;;0.80;;
14722;SDS011;7452;55.594;12.986;2023-03-01T14:57:32;1.10;;;0.90;;
14722;SDS011;7452;55.594;12.986;2023-03-01T15:00:00;1.47;;;0.87;;
14722;SDS011;7452;55.594;12.986;2023-03-01T15:02:30;1.67;;;0.97;;
14722;SDS011;7452;55.594;12.986;2023-03-01T15:05:02;1.43;;;1.00;;
14722;SDS011;7452;55.594;12.986;2023-03-01T15:07:34;3.20;;;1.00;;
14722;SDS011;7452;55.594;12.986;2023-03-01T15:10:03;1.75;;;0.70;;
14722;SDS011;7452;55.594;12.986;2023-03-01T15:12:34;0.70;;;0.60;;
14722;SDS011;7452;55.594;12.986;2023-03-01T15:18:11;1.13;;;0.65;;
14722;SDS011;7452;55.594;12.986;2023-03-01T15:20:42;0.97;;;0.67;;
14722;SDS011;7452;55.594;12.986;2023-03-01T15:26:00;1.23;;;0.70;;
14722;SDS011;7452;55.594;12.986;2023-03-01T15:28:29;2.57;;;0.50;;
14722;SDS011;7452;55.594;12.986;2023-03-01T15:30:58;1.30;;;0.90;;
14722;SDS011;7452;55.594;12.986;2023-03-01T15:33:28;1.40;;;0.70;;
14722;SDS011;7452;55.594;12.986;2023-03-01T15:36:03;2.23;;;0.90;;